Time;durP1;ratioP1;P1;durP2;ratioP2;P2;SDS_P1;SDS_P2;PMS_P1;PMS_P2;Temp;Humidity;BMP_temperature;BMP_pressure;BME280_temperature;BME280_humidity;BME280_pressure;Samples;Min_cycle;Max_cycle;Signal;HPM_P1;HPM_P2
2021/01/11 00:00:25;;;;;;;5.87;2.13;;;;;;;;;;5113794;28;20032;-56
2021/01/11 00:02:52;;;;;;;4.33;2.23;;;;;;;;;;5113418;28;20051;-56
2021/01/11 00:05:19;;;;;;;3.63;2.13;;;;;;;;;;5113716;28;20020;-56
2021/01/11 00:07:46;;;;;;;8.30;2.20;;;;;;;;;;5113401;28;20099;-56
2021/01/11 00:10:13;;;;;;;4.07;2.13;;;;;;;;;;5113422;28;20543;-56
2021/01/11 00:12:41;;;;;;;3.40;2.10;;;;;;;;;;5113235;28;20028;-56
2021/01/11 00:15:29;;;;;;;4.83;2.67;;;;;;;;;;5113553;27;20555;-56
2021/01/11 00:17:56;;;;;;;9.17;2.73;;;;;;;;;;5092839;28;20078;-56
2021/01/11 00:20:22;;;;;;;6.27;2.20;;;;;;;;;;5092829;28;20553;-56
2021/01/11 00:22:49;;;;;;;7.03;3.53;;;;;;;;;;5092803;28;20497;-56
2021/01/11 00:25:16;;;;;;;7.17;4.07;;;;;;;;;;5092803;28;20487;-56
2021/01/11 00:27:43;;;;;;;20.53;4.60;;;;;;;;;;5092934;28;20028;-56
2021/01/11 00:30:10;;;;;;;11.87;3.73;;;;;;;;;;5093204;28;20095;-56
2021/01/11 00:32:38;;;;;;;6.00;3.80;;;;;;;;;;5092864;28;20024;-56
2021/01/11 00:35:05;;;;;;;5.53;3.87;;;;;;;;;;5092807;28;20028;-56
2021/01/11 00:37:32;;;;;;;9.10;4.50;;;;;;;;;;5092789;28;20028;-56
2021/01/11 00:39:59;;;;;;;5.60;3.57;;;;;;;;;;5092873;28;20031;-56
2021/01/11 00:42:26;;;;;;;6.43;4.30;;;;;;;;;;5092606;28;20036;-56
2021/01/11 00:44:52;;;;;;;5.30;2.90;;;;;;;;;;5092738;28;20382;-56
2021/01/11 00:47:19;;;;;;;4.90;2.87;;;;;;;;;;5092598;28;20179;-56
2021/01/11 00:49:46;;;;;;;6.13;3.00;;;;;;;;;;5092737;28;20027;-56
2021/01/11 00:52:13;;;;;;;5.53;2.13;;;;;;;;;;5092687;28;20166;-56
2021/01/11 00:54:39;;;;;;;6.57;2.50;;;;;;;;;;5094821;28;20055;-56
2021/01/11 00:57:07;;;;;;;5.23;3.13;;;;;;;;;;5096641;28;20024;-56
2021/01/11 00:59:34;;;;;;;9.30;3.80;;;;;;;;;;5096485;28;20466;-56
2021/01/11 01:02:01;;;;;;;8.50;4.17;;;;;;;;;;5096476;28;20537;-56
2021/01/11 01:04:28;;;;;;;7.77;4.30;;;;;;;;;;5096433;28;20035;-55
2021/01/11 01:07:01;;;;;;;7.53;3.60;;;;;;;;;;5096207;28;20046;-56
2021/01/11 01:09:28;;;;;;;6.13;3.33;;;;;;;;;;5096309;28;20042;-56
2021/01/11 01:11:54;;;;;;;5.93;2.70;;;;;;;;;;5096345;28;20065;-56
2021/01/11 01:14:21;;;;;;;7.73;3.43;;;;;;;;;;5096384;28;20020;-56
2021/01/11 01:16:48;;;;;;;7.10;3.40;;;;;;;;;;5109036;27;20051;-56
2021/01/11 01:19:15;;;;;;;4.63;3.03;;;;;;;;;;5116586;28;20023;-56
2021/01/11 01:21:41;;;;;;;7.37;3.40;;;;;;;;;;5116379;28;20088;-56
2021/01/11 01:24:08;;;;;;;7.57;3.80;;;;;;;;;;5116370;28;20431;-56
2021/01/11 01:26:35;;;;;;;7.50;2.70;;;;;;;;;;5116406;28;20129;-56
2021/01/11 01:29:02;;;;;;;5.93;3.40;;;;;;;;;;5116277;28;20068;-56
2021/01/11 01:31:29;;;;;;;6.37;3.40;;;;;;;;;;5116341;28;20020;-56
2021/01/11 01:33:55;;;;;;;7.37;4.37;;;;;;;;;;5116263;28;20386;-56
2021/01/11 01:36:22;;;;;;;7.20;3.33;;;;;;;;;;5116230;28;20027;-56
2021/01/11 01:38:49;;;;;;;4.93;2.90;;;;;;;;;;5116270;28;20034;-56
2021/01/11 01:41:16;;;;;;;7.80;3.80;;;;;;;;;;5116080;28;20035;-56
2021/01/11 01:43:42;;;;;;;7.27;3.10;;;;;;;;;;5116083;28;20030;-56
2021/01/11 01:46:15;;;;;;;5.87;3.30;;;;;;;;;;5116064;28;20019;-56
2021/01/11 01:48:42;;;;;;;11.40;3.63;;;;;;;;;;5115986;28;20024;-56
2021/01/11 01:51:09;;;;;;;8.70;4.13;;;;;;;;;;5116025;28;20028;-56
2021/01/11 01:53:36;;;;;;;5.67;2.93;;;;;;;;;;5115853;28;20527;-56
2021/01/11 01:56:03;;;;;;;6.23;3.00;;;;;;;;;;5115757;28;20055;-55
2021/01/11 01:58:29;;;;;;;7.17;3.40;;;;;;;;;;5115829;28;20095;-55
2021/01/11 02:00:56;;;;;;;3.47;2.37;;;;;;;;;;5115706;28;20382;-56
2021/01/11 02:03:23;;;;;;;4.93;2.60;;;;;;;;;;5115747;28;20023;-56
2021/01/11 02:05:50;;;;;;;5.03;2.60;;;;;;;;;;5114907;28;20028;-56
2021/01/11 02:08:49;;;;;;;3.90;2.60;;;;;;;;;;5115564;28;20027;-56
2021/01/11 02:11:15;;;;;;;5.27;2.63;;;;;;;;;;5070634;28;20039;-56
2021/01/11 02:13:54;;;;;;;4.47;2.57;;;;;;;;;;5115522;28;20034;-56
2021/01/11 02:16:26;;;;;;;4.50;2.40;;;;;;;;;;5115843;27;20058;-56
2021/01/11 02:19:01;;;;;;;3.70;2.50;;;;;;;;;;5115384;28;20448;-56
2021/01/11 02:21:27;;;;;;;;;;;;;;;;;;5116026;28;20098;-56
2021/01/11 02:24:03;;;;;;;4.70;2.43;;;;;;;;;;5115258;28;20408;-56
2021/01/11 02:26:50;;;;;;;4.80;2.70;;;;;;;;;;5115121;28;20526;-56
2021/01/11 02:29:29;;;;;;;4.57;2.60;;;;;;;;;;5073838;28;20363;-56
2021/01/11 02:31:57;;;;;;;3.37;2.20;;;;;;;;;;5115256;28;20035;-56
2021/01/11 02:34:25;;;;;;;4.03;2.50;;;;;;;;;;5115112;28;20028;-56
2021/01/11 02:36:52;;;;;;;5.47;2.40;;;;;;;;;;5115041;28;20019;-56
2021/01/11 02:39:19;;;;;;;3.97;2.70;;;;;;;;;;5114912;28;20385;-56
2021/01/11 02:41:46;;;;;;;3.40;2.17;;;;;;;;;;5114862;28;20177;-56
2021/01/11 02:44:12;;;;;;;4.50;2.90;;;;;;;;;;5114864;28;20024;-56
2021/01/11 02:46:39;;;;;;;3.57;2.50;;;;;;;;;;5114720;28;20485;-56
2021/01/11 02:49:10;;;;;;;5.67;3.23;;;;;;;;;;5114941;28;20117;-56
2021/01/11 02:52:03;;;;;;;4.40;2.50;;;;;;;;;;5114761;28;20390;-56
2021/01/11 02:54:34;;;;;;;4.17;2.50;;;;;;;;;;5083643;28;20393;-56
2021/01/11 02:57:20;;;;;;;2.90;2.33;;;;;;;;;;5114644;28;20032;-56
2021/01/11 02:59:46;;;;;;;;;;;;;;;;;;5115358;28;20260;-56
2021/01/11 03:02:14;;;;;;;3.30;2.30;;;;;;;;;;5114347;28;19958;-57
2021/01/11 03:04:41;;;;;;;4.10;2.43;;;;;;;;;;5114509;28;20023;-57
2021/01/11 03:07:08;;;;;;;3.63;2.40;;;;;;;;;;5114297;28;20034;-57
2021/01/11 03:09:46;;;;;;;6.27;2.87;;;;;;;;;;5114493;28;20016;-57
2021/01/11 03:12:13;;;;;;;4.13;2.53;;;;;;;;;;5114409;28;20023;-56
2021/01/11 03:14:40;;;;;;;3.70;2.40;;;;;;;;;;5114468;28;20403;-56
2021/01/11 03:17:07;;;;;;;5.20;2.83;;;;;;;;;;5113824;27;20123;-55
2021/01/11 03:19:34;;;;;;;3.40;2.43;;;;;;;;;;5114074;28;20020;-56
2021/01/11 03:22:01;;;;;;;3.70;2.20;;;;;;;;;;5114031;28;20027;-56
2021/01/11 03:24:27;;;;;;;3.47;2.33;;;;;;;;;;5114188;28;20019;-56
2021/01/11 03:26:58;;;;;;;3.20;2.17;;;;;;;;;;5113987;28;20028;-56
2021/01/11 03:29:25;;;;;;;4.63;2.87;;;;;;;;;;5113939;28;20023;-56
2021/01/11 03:31:51;;;;;;;3.77;2.50;;;;;;;;;;5114031;28;20488;-56
2021/01/11 03:34:18;;;;;;;3.00;1.93;;;;;;;;;;5113922;28;20389;-56
2021/01/11 03:36:45;;;;;;;5.00;2.60;;;;;;;;;;5113857;28;20027;-56
2021/01/11 03:39:12;;;;;;;3.80;2.57;;;;;;;;;;5113907;28;20027;-56
2021/01/11 03:41:40;;;;;;;3.10;2.00;;;;;;;;;;5113758;28;20039;-56
2021/01/11 03:44:08;;;;;;;3.90;2.20;;;;;;;;;;5113718;28;20027;-56
2021/01/11 03:46:35;;;;;;;6.70;2.90;;;;;;;;;;5113503;28;20028;-56
2021/01/11 03:49:02;;;;;;;3.33;2.50;;;;;;;;;;5113677;28;20027;-56
2021/01/11 03:51:29;;;;;;;4.33;2.70;;;;;;;;;;5113731;28;20033;-56
2021/01/11 03:53:55;;;;;;;6.50;2.97;;;;;;;;;;5113609;28;20076;-56
2021/01/11 03:56:23;;;;;;;7.33;2.90;;;;;;;;;;5113543;28;20066;-56
2021/01/11 03:58:50;;;;;;;5.23;3.00;;;;;;;;;;5113516;28;20386;-56
2021/01/11 04:01:16;;;;;;;5.20;3.00;;;;;;;;;;5113400;28;20046;-56
2021/01/11 04:03:43;;;;;;;5.70;2.70;;;;;;;;;;5113544;28;20031;-56
2021/01/11 04:06:10;;;;;;;3.63;2.30;;;;;;;;;;5095101;28;20028;-55
2021/01/11 04:08:37;;;;;;;4.10;2.53;;;;;;;;;;5095157;28;20031;-55
2021/01/11 04:11:04;;;;;;;4.73;2.10;;;;;;;;;;5113291;28;20059;-56
2021/01/11 04:13:30;;;;;;;8.57;3.00;;;;;;;;;;5113288;28;20016;-56
2021/01/11 04:15:58;;;;;;;3.73;2.63;;;;;;;;;;5113687;27;20065;-58
2021/01/11 04:18:25;;;;;;;4.60;2.70;;;;;;;;;;5113346;28;20498;-57
2021/01/11 04:20:52;;;;;;;3.60;2.73;;;;;;;;;;5113234;28;20040;-56
2021/01/11 04:23:19;;;;;;;4.20;2.93;;;;;;;;;;5113253;28;20035;-57
2021/01/11 04:25:45;;;;;;;4.57;2.83;;;;;;;;;;5113326;28;20024;-57
2021/01/11 04:28:12;;;;;;;3.63;2.57;;;;;;;;;;5113184;28;20024;-57
2021/01/11 04:30:39;;;;;;;4.00;2.40;;;;;;;;;;5117460;28;20027;-56
2021/01/11 04:33:06;;;;;;;3.50;2.30;;;;;;;;;;5117451;28;20381;-56
2021/01/11 04:35:32;;;;;;;5.17;2.10;;;;;;;;;;5117397;28;20023;-57
2021/01/11 04:37:59;;;;;;;5.13;2.17;;;;;;;;;;5117446;28;20038;-57
2021/01/11 04:40:26;;;;;;;3.20;2.40;;;;;;;;;;5117093;28;20048;-56
2021/01/11 04:43:11;;;;;;;3.17;2.03;;;;;;;;;;5117248;28;20031;-57
2021/01/11 04:45:38;;;;;;;2.95;2.25;;;;;;;;;;5117210;28;20023;-56
2021/01/11 04:48:05;;;;;;;4.30;2.33;;;;;;;;;;5117236;28;20054;-57
2021/01/11 04:50:31;;;;;;;8.77;3.47;;;;;;;;;;5117136;28;20047;-56
2021/01/11 04:52:58;;;;;;;4.30;2.57;;;;;;;;;;5117046;28;20024;-57
2021/01/11 04:55:25;;;;;;;6.13;2.50;;;;;;;;;;5117622;28;20027;-56
2021/01/11 04:57:56;;;;;;;10.70;2.60;;;;;;;;;;5117017;28;20035;-57
2021/01/11 05:00:30;;;;;;;4.97;2.60;;;;;;;;;;5116987;28;20042;-56
2021/01/11 05:03:01;;;;;;;3.97;2.42;;;;;;;;;;5116959;28;20024;-56
2021/01/11 05:05:33;;;;;;;4.33;2.60;;;;;;;;;;5116758;28;20281;-57
2021/01/11 05:08:00;;;;;;;5.30;2.57;;;;;;;;;;5116741;28;20538;-56
2021/01/11 05:10:30;;;;;;;3.97;2.77;;;;;;;;;;5116791;28;20501;-57
2021/01/11 05:12:58;;;;;;;4.20;2.30;;;;;;;;;;5116961;28;20408;-56
2021/01/11 05:15:26;;;;;;;6.13;2.50;;;;;;;;;;5116764;28;20023;-56
2021/01/11 05:17:53;;;;;;;3.40;2.70;;;;;;;;;;5117148;27;20497;-56
2021/01/11 05:20:21;;;;;;;4.97;2.80;;;;;;;;;;5116608;28;20032;-56
2021/01/11 05:22:48;;;;;;;4.90;2.90;;;;;;;;;;5116462;28;20114;-56
2021/01/11 05:25:16;;;;;;;5.20;3.00;;;;;;;;;;5116404;28;20281;-57
2021/01/11 05:27:43;;;;;;;11.90;3.40;;;;;;;;;;5116441;28;20032;-57
2021/01/11 05:30:12;;;;;;;4.97;2.63;;;;;;;;;;5116387;28;20030;-57
2021/01/11 05:32:39;;;;;;;7.60;3.30;;;;;;;;;;5116243;28;20023;-57
2021/01/11 05:35:06;;;;;;;4.43;3.20;;;;;;;;;;5116287;28;20031;-56
2021/01/11 05:37:37;;;;;;;3.93;2.73;;;;;;;;;;5116235;28;20026;-56
2021/01/11 05:40:18;;;;;;;5.00;2.90;;;;;;;;;;5115347;28;20347;-57
2021/01/11 05:42:50;;;;;;;4.87;2.47;;;;;;;;;;5115962;28;20036;-57
2021/01/11 05:45:18;;;;;;;6.00;2.70;;;;;;;;;;5116050;28;20462;-57
2021/01/11 05:48:01;;;;;;;5.00;2.60;;;;;;;;;;5116020;28;20035;-56
2021/01/11 05:50:48;;;;;;;4.23;2.53;;;;;;;;;;5116154;28;20031;-56
2021/01/11 05:53:21;;;;;;;4.20;2.60;;;;;;;;;;5115866;28;20019;-56
2021/01/11 05:55:49;;;;;;;4.07;2.70;;;;;;;;;;5115861;28;20027;-57
2021/01/11 05:58:16;;;;;;;5.60;2.87;;;;;;;;;;5115831;28;20407;-56
2021/01/11 06:00:43;;;;;;;4.43;3.00;;;;;;;;;;5115718;28;20091;-56
2021/01/11 06:03:10;;;;;;;4.00;2.77;;;;;;;;;;5115637;28;20024;-57
2021/01/11 06:05:37;;;;;;;5.00;3.07;;;;;;;;;;5115548;28;20436;-56
2021/01/11 06:08:05;;;;;;;3.70;2.80;;;;;;;;;;5115927;28;20110;-56
2021/01/11 06:10:32;;;;;;;4.90;2.70;;;;;;;;;;5115548;28;20023;-56
2021/01/11 06:12:59;;;;;;;3.90;2.53;;;;;;;;;;5115437;28;20039;-57
2021/01/11 06:15:26;;;;;;;3.53;2.27;;;;;;;;;;5115397;28;20031;-56
2021/01/11 06:17:54;;;;;;;4.83;2.70;;;;;;;;;;5115998;27;20048;-57
2021/01/11 06:20:25;;;;;;;4.20;2.57;;;;;;;;;;5115377;28;20028;-56
2021/01/11 06:22:51;;;;;;;7.03;2.60;;;;;;;;;;5115249;28;20032;-57
2021/01/11 06:25:18;;;;;;;3.83;2.37;;;;;;;;;;5115273;28;20574;-56
2021/01/11 06:27:54;;;;;;;3.57;2.33;;;;;;;;;;5115267;28;20023;-56
2021/01/11 06:30:36;;;;;;;3.87;2.40;;;;;;;;;;5115192;28;20027;-56
2021/01/11 06:33:21;;;;;;;4.40;2.87;;;;;;;;;;5115129;28;20019;-57
2021/01/11 06:35:49;;;;;;;6.03;2.80;;;;;;;;;;5115104;28;20389;-57
2021/01/11 06:38:22;;;;;;;4.57;3.30;;;;;;;;;;5115061;28;20034;-56
2021/01/11 06:40:53;;;;;;;5.60;2.73;;;;;;;;;;5115188;28;20043;-56
2021/01/11 06:43:20;;;;;;;5.30;2.80;;;;;;;;;;5114870;28;20386;-56
2021/01/11 06:45:48;;;;;;;6.83;2.90;;;;;;;;;;5114890;28;20020;-57
2021/01/11 06:48:19;;;;;;;5.10;3.10;;;;;;;;;;5115183;28;20077;-57
2021/01/11 06:50:47;;;;;;;4.33;2.30;;;;;;;;;;5114729;28;20029;-56
2021/01/11 06:53:14;;;;;;;4.77;2.50;;;;;;;;;;5114533;28;20027;-56
2021/01/11 06:55:41;;;;;;;4.17;2.30;;;;;;;;;;5114668;28;20050;-56
2021/01/11 06:58:08;;;;;;;3.97;2.80;;;;;;;;;;5114754;28;20038;-56
2021/01/11 07:00:40;;;;;;;3.63;2.27;;;;;;;;;;5114483;28;20046;-56
2021/01/11 07:03:08;;;;;;;4.30;2.93;;;;;;;;;;5114553;28;20030;-56
2021/01/11 07:05:38;;;;;;;4.03;2.83;;;;;;;;;;5114531;28;20484;-56
2021/01/11 07:08:05;;;;;;;4.30;2.80;;;;;;;;;;5114333;28;20065;-56
2021/01/11 07:10:32;;;;;;;7.30;3.27;;;;;;;;;;5114418;28;20039;-56
2021/01/11 07:13:17;;;;;;;4.97;2.57;;;;;;;;;;5114282;28;20031;-57
2021/01/11 07:15:44;;;;;;;3.67;2.40;;;;;;;;;;5114269;28;20027;-56
2021/01/11 07:18:11;;;;;;;4.03;2.40;;;;;;;;;;5114816;27;20096;-56
2021/01/11 07:20:43;;;;;;;6.77;3.40;;;;;;;;;;5114234;28;20031;-56
2021/01/11 07:23:09;;;;;;;6.33;3.13;;;;;;;;;;5114073;28;20088;-56
2021/01/11 07:25:37;;;;;;;4.10;2.60;;;;;;;;;;5114155;28;20016;-56
2021/01/11 07:28:04;;;;;;;3.63;2.60;;;;;;;;;;5114107;28;20466;-56
2021/01/11 07:30:34;;;;;;;5.17;2.90;;;;;;;;;;5113994;28;20106;-56
2021/01/11 07:33:00;;;;;;;3.83;2.47;;;;;;;;;;5113987;28;20073;-56
2021/01/11 07:35:27;;;;;;;4.50;2.70;;;;;;;;;;5113856;28;20024;-57
2021/01/11 07:37:54;;;;;;;3.70;2.70;;;;;;;;;;5113980;28;20028;-57
2021/01/11 07:40:22;;;;;;;3.53;2.43;;;;;;;;;;5113853;28;20028;-56
2021/01/11 07:42:50;;;;;;;7.07;2.93;;;;;;;;;;5113801;28;20055;-56
2021/01/11 07:45:18;;;;;;;3.60;2.50;;;;;;;;;;5113953;28;20378;-57
2021/01/11 07:47:51;;;;;;;5.60;2.67;;;;;;;;;;5113710;28;20036;-57
2021/01/11 07:50:18;;;;;;;6.40;3.30;;;;;;;;;;5113687;28;20027;-56
2021/01/11 07:52:47;;;;;;;5.93;3.20;;;;;;;;;;5113589;28;20036;-56
2021/01/11 07:55:14;;;;;;;7.73;3.47;;;;;;;;;;5113901;28;20027;-56
2021/01/11 07:57:41;;;;;;;9.30;4.20;;;;;;;;;;5113586;28;20024;-56
2021/01/11 08:00:13;;;;;;;7.60;3.53;;;;;;;;;;5113648;28;20390;-56
2021/01/11 08:02:40;;;;;;;7.00;4.40;;;;;;;;;;5113303;28;20076;-56
2021/01/11 08:05:20;;;;;;;6.33;4.03;;;;;;;;;;5112915;28;20019;-56
2021/01/11 08:07:50;;;;;;;7.77;4.40;;;;;;;;;;5113403;28;20023;-56
2021/01/11 08:10:23;;;;;;;9.30;3.63;;;;;;;;;;5095404;28;20110;-56
2021/01/11 08:12:50;;;;;;;4.77;2.90;;;;;;;;;;5113587;28;20020;-56
2021/01/11 08:15:20;;;;;;;4.80;3.43;;;;;;;;;;5113452;28;20095;-56
2021/01/11 08:17:47;;;;;;;5.53;3.53;;;;;;;;;;5113795;27;20052;-56
2021/01/11 08:20:23;;;;;;;5.70;3.47;;;;;;;;;;5113296;28;20367;-56
2021/01/11 08:22:50;;;;;;;5.70;3.50;;;;;;;;;;5113251;28;20035;-56
2021/01/11 08:25:17;;;;;;;5.63;3.40;;;;;;;;;;5113249;28;20038;-56
2021/01/11 08:27:53;;;;;;;5.33;3.30;;;;;;;;;;5113198;28;20024;-56
2021/01/11 08:30:24;;;;;;;5.10;3.40;;;;;;;;;;5113154;28;20420;-56
2021/01/11 08:32:51;;;;;;;6.67;3.07;;;;;;;;;;5113292;28;20414;-56
2021/01/11 08:35:20;;;;;;;5.97;3.60;;;;;;;;;;5113117;28;20024;-56
2021/01/11 08:37:47;;;;;;;5.57;3.40;;;;;;;;;;5113296;28;20032;-56
2021/01/11 08:40:19;;;;;;;4.60;2.80;;;;;;;;;;5113092;28;20382;-56
2021/01/11 08:42:47;;;;;;;12.07;3.67;;;;;;;;;;5112884;28;20397;-56
2021/01/11 08:45:31;;;;;;;7.10;4.07;;;;;;;;;;5112989;28;20037;-56
2021/01/11 08:47:59;;;;;;;6.85;3.42;;;;;;;;;;5113085;28;20498;-56
2021/01/11 08:50:26;;;;;;;5.90;3.70;;;;;;;;;;5113259;28;20031;-56
2021/01/11 08:52:53;;;;;;;4.40;3.03;;;;;;;;;;5112932;28;20085;-56
2021/01/11 08:55:21;;;;;;;6.87;3.77;;;;;;;;;;5112978;28;20489;-56
2021/01/11 08:58:01;;;;;;;6.20;3.20;;;;;;;;;;5112954;28;20035;-56
2021/01/11 09:00:27;;;;;;;6.27;3.27;;;;;;;;;;5113043;28;20057;-56
2021/01/11 09:02:54;;;;;;;10.10;3.53;;;;;;;;;;5112740;28;20042;-56
2021/01/11 09:05:26;;;;;;;5.70;3.23;;;;;;;;;;5112835;28;20031;-56
2021/01/11 09:07:54;;;;;;;7.37;3.97;;;;;;;;;;5112741;28;20031;-56
2021/01/11 09:10:21;;;;;;;7.10;4.20;;;;;;;;;;5112799;28;20019;-56
2021/01/11 09:12:48;;;;;;;4.83;3.57;;;;;;;;;;5112850;28;20062;-56
2021/01/11 09:15:15;;;;;;;5.97;4.10;;;;;;;;;;5114294;28;20030;-56
2021/01/11 09:17:42;;;;;;;7.03;3.60;;;;;;;;;;5117042;27;20051;-56
2021/01/11 09:20:09;;;;;;;5.10;3.33;;;;;;;;;;5116534;28;20111;-56
2021/01/11 09:22:40;;;;;;;7.60;4.17;;;;;;;;;;5116436;28;20042;-56
2021/01/11 09:25:12;;;;;;;6.30;3.63;;;;;;;;;;5116366;28;20028;-56
2021/01/11 09:27:40;;;;;;;6.00;3.87;;;;;;;;;;5116447;28;20057;-56
2021/01/11 09:30:08;;;;;;;6.80;4.53;;;;;;;;;;5116474;28;20020;-56
2021/01/11 09:32:35;;;;;;;7.80;4.17;;;;;;;;;;5116275;28;20024;-56
2021/01/11 09:35:02;;;;;;;7.20;4.07;;;;;;;;;;5116182;28;20061;-56
2021/01/11 09:37:29;;;;;;;6.90;4.03;;;;;;;;;;5116181;28;20035;-56
2021/01/11 09:39:56;;;;;;;5.83;3.93;;;;;;;;;;5116297;28;20426;-56
2021/01/11 09:42:23;;;;;;;7.27;3.93;;;;;;;;;;5116037;28;20375;-56
2021/01/11 09:44:49;;;;;;;6.90;4.20;;;;;;;;;;5115988;28;20035;-56
2021/01/11 09:47:16;;;;;;;7.53;4.17;;;;;;;;;;5116093;28;20061;-56
2021/01/11 09:49:43;;;;;;;6.83;4.23;;;;;;;;;;5115973;28;20051;-56
2021/01/11 09:52:10;;;;;;;7.07;3.70;;;;;;;;;;5115933;28;20083;-56
2021/01/11 09:54:37;;;;;;;7.13;4.10;;;;;;;;;;5115822;28;20107;-56
2021/01/11 09:57:04;;;;;;;7.03;4.20;;;;;;;;;;5115873;28;20492;-56
2021/01/11 09:59:31;;;;;;;5.47;3.83;;;;;;;;;;5115856;28;20076;-56
2021/01/11 10:01:58;;;;;;;7.53;3.63;;;;;;;;;;5115727;28;20038;-56
2021/01/11 10:04:25;;;;;;;6.33;4.30;;;;;;;;;;5115586;28;20027;-56
2021/01/11 10:06:54;;;;;;;5.80;3.57;;;;;;;;;;5115531;28;20027;-56
2021/01/11 10:09:21;;;;;;;7.40;3.97;;;;;;;;;;5115658;28;20024;-56
2021/01/11 10:11:49;;;;;;;6.13;3.50;;;;;;;;;;5115701;28;20054;-56
2021/01/11 10:14:16;;;;;;;5.97;3.43;;;;;;;;;;5115525;28;20047;-56
2021/01/11 10:16:44;;;;;;;7.00;3.50;;;;;;;;;;5115966;27;20055;-56
2021/01/11 10:19:11;;;;;;;6.63;4.87;;;;;;;;;;5115536;28;20045;-56
2021/01/11 10:21:38;;;;;;;5.30;3.83;;;;;;;;;;5115337;28;20031;-56
2021/01/11 10:24:06;;;;;;;6.20;3.90;;;;;;;;;;5115397;28;20230;-56
2021/01/11 10:26:33;;;;;;;5.57;3.63;;;;;;;;;;5114612;28;20046;-56
2021/01/11 10:29:00;;;;;;;5.43;3.63;;;;;;;;;;5115290;28;20027;-57
2021/01/11 10:31:27;;;;;;;6.20;4.17;;;;;;;;;;5115236;28;20431;-56
2021/01/11 10:33:54;;;;;;;6.37;4.27;;;;;;;;;;5115156;28;20072;-56
2021/01/11 10:36:21;;;;;;;8.27;4.03;;;;;;;;;;5114984;28;20028;-56
2021/01/11 10:38:48;;;;;;;5.07;3.03;;;;;;;;;;5096893;28;20470;-56
2021/01/11 10:41:19;;;;;;;4.30;3.10;;;;;;;;;;5115038;28;20055;-56
2021/01/11 10:43:46;;;;;;;7.50;3.67;;;;;;;;;;5115068;28;20034;-56
2021/01/11 10:46:16;;;;;;;7.10;4.17;;;;;;;;;;5114955;28;20111;-56
2021/01/11 10:48:44;;;;;;;7.67;3.40;;;;;;;;;;5114905;28;20024;-56
2021/01/11 10:51:11;;;;;;;5.43;3.50;;;;;;;;;;5114820;28;20481;-56
2021/01/11 10:53:41;;;;;;;5.83;3.70;;;;;;;;;;5114778;28;20047;-56
2021/01/11 10:56:08;;;;;;;5.40;3.53;;;;;;;;;;5114695;28;20030;-56
2021/01/11 10:58:35;;;;;;;6.43;3.53;;;;;;;;;;5114665;28;20373;-56
2021/01/11 11:01:02;;;;;;;4.77;3.60;;;;;;;;;;5114630;28;20027;-56
2021/01/11 11:03:29;;;;;;;6.83;3.13;;;;;;;;;;5114577;28;20077;-56
2021/01/11 11:05:56;;;;;;;4.83;3.13;;;;;;;;;;5114428;28;20019;-56
2021/01/11 11:08:23;;;;;;;8.03;3.53;;;;;;;;;;5114490;28;20073;-56
2021/01/11 11:10:49;;;;;;;6.93;3.70;;;;;;;;;;5114498;28;20026;-56
2021/01/11 11:13:16;;;;;;;5.20;3.97;;;;;;;;;;5114341;28;20062;-57
2021/01/11 11:15:43;;;;;;;5.07;3.47;;;;;;;;;;5114254;28;20030;-56
2021/01/11 11:18:11;;;;;;;6.37;3.57;;;;;;;;;;5114781;27;20420;-56
2021/01/11 11:20:38;;;;;;;6.40;3.77;;;;;;;;;;5114155;28;20024;-56
2021/01/11 11:23:05;;;;;;;5.50;3.73;;;;;;;;;;5114121;28;20118;-56
2021/01/11 11:25:32;;;;;;;6.10;3.27;;;;;;;;;;5114063;28;20026;-56
2021/01/11 11:27:59;;;;;;;6.03;3.70;;;;;;;;;;5114180;28;20052;-56
2021/01/11 11:30:26;;;;;;;5.53;3.70;;;;;;;;;;5114068;28;20065;-56
2021/01/11 11:32:53;;;;;;;5.40;3.20;;;;;;;;;;5114016;28;20028;-56
2021/01/11 11:35:20;;;;;;;7.67;3.30;;;;;;;;;;5113935;28;20027;-56
2021/01/11 11:37:48;;;;;;;5.07;3.20;;;;;;;;;;5113605;28;20024;-56
2021/01/11 11:40:15;;;;;;;6.03;3.37;;;;;;;;;;5113321;28;20061;-56
2021/01/11 11:42:42;;;;;;;5.20;2.93;;;;;;;;;;5113697;28;20035;-56
2021/01/11 11:45:13;;;;;;;7.33;2.83;;;;;;;;;;5113798;28;20035;-56
2021/01/11 11:47:41;;;;;;;4.83;2.70;;;;;;;;;;5113771;28;20028;-56
2021/01/11 11:50:09;;;;;;;4.43;3.10;;;;;;;;;;5113947;28;20020;-56
2021/01/11 11:52:37;;;;;;;3.60;2.60;;;;;;;;;;5113634;28;20355;-56
2021/01/11 11:55:05;;;;;;;3.93;2.87;;;;;;;;;;5113619;28;20088;-56
2021/01/11 11:57:32;;;;;;;5.10;3.30;;;;;;;;;;5113643;28;20043;-56
2021/01/11 11:59:59;;;;;;;4.60;3.00;;;;;;;;;;5113670;28;20474;-56
2021/01/11 12:02:25;;;;;;;3.87;3.00;;;;;;;;;;5113500;28;20042;-56
2021/01/11 12:04:52;;;;;;;5.30;3.23;;;;;;;;;;5113473;28;20020;-56
2021/01/11 12:07:19;;;;;;;4.00;2.67;;;;;;;;;;5113447;28;20032;-56
2021/01/11 12:09:46;;;;;;;3.83;2.73;;;;;;;;;;5113419;28;20026;-56
2021/01/11 12:12:15;;;;;;;4.20;2.93;;;;;;;;;;5113482;28;20103;-56
2021/01/11 12:14:44;;;;;;;7.83;3.00;;;;;;;;;;5113438;28;20019;-56
2021/01/11 12:17:11;;;;;;;3.57;2.40;;;;;;;;;;5113943;27;20077;-56
2021/01/11 12:19:38;;;;;;;5.17;3.47;;;;;;;;;;5113337;28;20039;-56
2021/01/11 12:22:11;;;;;;;4.80;3.10;;;;;;;;;;5113234;28;20038;-56
2021/01/11 12:24:41;;;;;;;4.50;3.10;;;;;;;;;;5113376;28;20028;-56
2021/01/11 12:27:08;;;;;;;4.37;2.73;;;;;;;;;;5113309;28;20141;-56
2021/01/11 12:29:35;;;;;;;8.33;2.93;;;;;;;;;;5113260;28;20028;-56
2021/01/11 12:32:09;;;;;;;7.50;3.40;;;;;;;;;;5113182;28;20090;-56
2021/01/11 12:34:45;;;;;;;4.57;2.97;;;;;;;;;;5113358;28;20024;-56
2021/01/11 12:37:15;;;;;;;4.70;3.40;;;;;;;;;;5113213;28;20039;-56
2021/01/11 12:39:42;;;;;;;7.73;3.77;;;;;;;;;;5113132;28;20028;-56
2021/01/11 12:42:09;;;;;;;7.90;3.10;;;;;;;;;;5113157;28;20039;-56
2021/01/11 12:44:37;;;;;;;6.67;3.37;;;;;;;;;;5113003;28;20024;-56
2021/01/11 12:47:04;;;;;;;5.23;3.40;;;;;;;;;;5113165;28;20501;-56
2021/01/11 12:49:31;;;;;;;8.57;3.70;;;;;;;;;;5113463;28;20035;-56
2021/01/11 12:51:58;;;;;;;7.40;3.73;;;;;;;;;;5117126;28;20099;-56
2021/01/11 12:54:25;;;;;;;7.77;3.83;;;;;;;;;;5117104;28;20034;-56
2021/01/11 12:56:52;;;;;;;4.87;3.67;;;;;;;;;;5117656;28;20358;-56
2021/01/11 12:59:19;;;;;;;4.93;3.10;;;;;;;;;;5117095;28;20106;-56
2021/01/11 13:01:46;;;;;;;7.17;3.83;;;;;;;;;;5116936;28;20028;-56
2021/01/11 13:04:14;;;;;;;4.80;3.50;;;;;;;;;;5116939;28;20027;-56
2021/01/11 13:06:41;;;;;;;8.90;3.50;;;;;;;;;;5116766;28;20038;-56
2021/01/11 13:09:09;;;;;;;5.07;3.20;;;;;;;;;;5116831;28;20386;-56
2021/01/11 13:11:41;;;;;;;6.30;3.23;;;;;;;;;;5116732;28;20027;-56
2021/01/11 13:14:08;;;;;;;6.80;3.73;;;;;;;;;;5116948;28;20024;-56
2021/01/11 13:16:38;;;;;;;5.13;3.63;;;;;;;;;;5116657;28;20165;-56
2021/01/11 13:19:09;;;;;;;14.03;8.63;;;;;;;;;;5117075;27;20039;-56
2021/01/11 13:21:36;;;;;;;9.87;4.50;;;;;;;;;;5116518;28;20031;-56
2021/01/11 13:24:04;;;;;;;6.47;4.10;;;;;;;;;;5116553;28;20498;-56
2021/01/11 13:26:31;;;;;;;6.33;4.77;;;;;;;;;;5116494;28;20048;-56
2021/01/11 13:28:59;;;;;;;6.63;4.23;;;;;;;;;;5116410;28;20031;-56
2021/01/11 13:31:27;;;;;;;5.53;3.93;;;;;;;;;;5116372;28;20019;-56
2021/01/11 13:33:54;;;;;;;5.80;3.60;;;;;;;;;;5116371;28;20024;-56
2021/01/11 13:36:22;;;;;;;7.73;3.60;;;;;;;;;;5116213;28;20416;-56
2021/01/11 13:38:49;;;;;;;6.30;3.70;;;;;;;;;;5116341;28;20031;-56
2021/01/11 13:41:16;;;;;;;5.87;4.20;;;;;;;;;;5116005;28;20031;-56
2021/01/11 13:43:43;;;;;;;7.27;5.27;;;;;;;;;;5116255;28;20521;-56
2021/01/11 13:46:09;;;;;;;11.17;6.63;;;;;;;;;;5116122;28;20047;-56
2021/01/11 13:48:36;;;;;;;8.00;5.40;;;;;;;;;;5116088;28;20078;-56
2021/01/11 13:51:04;;;;;;;8.30;5.83;;;;;;;;;;5115957;28;20347;-56
2021/01/11 13:53:30;;;;;;;6.80;5.60;;;;;;;;;;5116029;28;20019;-56
2021/01/11 13:55:57;;;;;;;11.23;5.77;;;;;;;;;;5116002;28;20023;-56
2021/01/11 13:58:24;;;;;;;7.50;6.03;;;;;;;;;;5115883;28;20055;-56
2021/01/11 14:00:51;;;;;;;7.17;5.13;;;;;;;;;;5115371;28;20064;-56
2021/01/11 14:03:18;;;;;;;6.67;4.87;;;;;;;;;;5115155;28;20430;-56
2021/01/11 14:05:45;;;;;;;7.47;5.20;;;;;;;;;;5115717;28;20146;-56
2021/01/11 14:08:12;;;;;;;14.80;6.10;;;;;;;;;;5115618;28;20034;-56
2021/01/11 14:10:39;;;;;;;8.13;6.23;;;;;;;;;;5115674;28;20031;-56
2021/01/11 14:13:06;;;;;;;9.77;7.10;;;;;;;;;;5115621;28;20038;-56
2021/01/11 14:15:33;;;;;;;9.40;7.77;;;;;;;;;;5115460;28;20386;-56
2021/01/11 14:18:02;;;;;;;10.27;6.90;;;;;;;;;;5115974;27;20051;-56
2021/01/11 14:20:29;;;;;;;7.80;4.80;;;;;;;;;;5115731;28;20043;-56
2021/01/11 14:22:56;;;;;;;8.87;5.07;;;;;;;;;;5115345;28;20042;-56
2021/01/11 14:25:23;;;;;;;3.73;2.40;;;;;;;;;;5115656;28;20031;-56
2021/01/11 14:27:50;;;;;;;6.43;4.37;;;;;;;;;;5115304;28;20367;-56
2021/01/11 14:30:17;;;;;;;5.37;3.33;;;;;;;;;;5115294;28;20020;-56
2021/01/11 14:32:44;;;;;;;5.90;3.73;;;;;;;;;;5115555;28;20019;-56
2021/01/11 14:35:11;;;;;;;7.00;4.80;;;;;;;;;;5115165;28;20047;-56
2021/01/11 14:37:38;;;;;;;7.33;5.13;;;;;;;;;;5115036;28;20023;-56
2021/01/11 14:40:05;;;;;;;8.37;5.33;;;;;;;;;;5115034;28;20028;-56
2021/01/11 14:42:32;;;;;;;6.43;4.80;;;;;;;;;;5115016;28;20038;-57
2021/01/11 14:44:58;;;;;;;8.80;5.40;;;;;;;;;;5114943;28;20227;-56
2021/01/11 14:47:25;;;;;;;7.77;5.37;;;;;;;;;;5114961;28;20032;-56
2021/01/11 14:49:52;;;;;;;6.33;5.00;;;;;;;;;;5114946;28;20126;-56